Forside
METAR-TAF:

METAR-TAF

Lufthavne :

Alice Springs, Australien

Breddekreds: 23-48S, længdekreds: 133-53E, højde: 545 m

Aktuelle vejr

Denne rapport blev lavet for 36 minutter siden, kl. 02:00 UTC
Vind 12 kt fra østsydøst
Temperatur 28°C
Fugtighed 17%
Tryk 1018 hPa
Sigt 10 km eller mere
Overskyet i en højde af 11000 ft

METAR: YBAS 170200Z AUTO 11012KT 9999 // OVC110 28/01 Q1018 RF00.0/000.0 PRESENT WEATHER SENSOR US

Tid: 12:06 (02:36 UTC)

Vejrudsigter

Denne rapport blev lavet for 3 timer og 30 minutter siden, kl. 23:06 UTC
Foreløbig gælder fra 17 på 00 UTC til 17 på 24 UTC
Vind 12 kt fra østsydøst
Sigt 10 km eller mere
ingen skyer under 1500m og ingen cumulonimbus
Fra 17 på 0700 UTC
Vind 6 kt fra sydøst
Sigt 10 km eller mere
ingen skyer under 1500m og ingen cumulonimbus

TAF: YBAS 162306Z 1700/1724 11012KT CAVOK FM170700 14006KT CAVOK

Vejrobservationer og prognoser fra mere end 4000 lufthavne (METAR og TAF).

De gule og røde prikker repræsenterer de meteorologiske stationer.

Flyt musen over at se navnet på stationen.

Så klik over at se vejr observationer og prognoser.

At skifte det kort: Klik på de grønne knapper med et sort kors for at zoome ind; på den grønne knap med en bindestreg for at zoome ud; eller på de grønne pile for tilstødende kort.


METAR-TAF: